createdAt,value
2023-01-26T00:00:36.236Z,100650.06
2023-01-26T00:02:37.600Z,100648.84
2023-01-26T00:04:38.977Z,100634.94
2023-01-26T00:06:40.394Z,100655.59
2023-01-26T00:08:44.432Z,100637.19
2023-01-26T00:10:50.111Z,100627.50
2023-01-26T00:12:51.567Z,100635.78
2023-01-26T00:14:53.011Z,100632.47
2023-01-26T00:16:54.626Z,100638.69
2023-01-26T00:18:56.201Z,100637.44
2023-01-26T00:20:59.141Z,100631.53
2023-01-26T00:23:00.488Z,100633.22
2023-01-26T00:25:01.871Z,100630.38
2023-01-26T00:27:03.341Z,100619.50
2023-01-26T00:29:04.724Z,100621.41
2023-01-26T00:31:10.740Z,100604.19
2023-01-26T00:33:12.237Z,100596.44
2023-01-26T00:35:13.615Z,100592.97
2023-01-26T00:37:15.692Z,100594.75
2023-01-26T00:39:17.083Z,100583.44
2023-01-26T00:41:37.091Z,100578.97
2023-01-26T00:43:38.478Z,100575.28
2023-01-26T00:45:39.925Z,100573.50
2023-01-26T00:47:41.328Z,100576.38
2023-01-26T00:49:42.996Z,100567.38
2023-01-26T00:51:44.362Z,100564.09
2023-01-26T00:53:45.861Z,100564.09
2023-01-26T00:55:47.256Z,100567.19
2023-01-26T00:57:49.975Z,100563.81
2023-01-26T00:59:51.354Z,100553.44
2023-01-26T01:01:53.684Z,100557.13
2023-01-26T01:03:55.056Z,100557.81
2023-01-26T01:05:56.409Z,100556.03
2023-01-26T01:07:58.396Z,100552.63
2023-01-26T01:10:00.355Z,100549.91
2023-01-26T01:12:01.817Z,100539.41
2023-01-26T01:14:03.367Z,100549.34
2023-01-26T01:16:06.610Z,100545.56
2023-01-26T01:18:07.991Z,100551.56
2023-01-26T01:20:10.927Z,100555.00
2023-01-26T01:22:12.522Z,100551.00
2023-01-26T01:24:14.029Z,100542.81
2023-01-26T01:26:16.541Z,100547.88
2023-01-26T01:28:17.898Z,100541.03
2023-01-26T01:30:19.369Z,100545.41
2023-01-26T01:32:21.363Z,100548.56
2023-01-26T01:34:23.299Z,100542.59
2023-01-26T01:36:25.313Z,100542.59
2023-01-26T01:38:27.486Z,100545.19
2023-01-26T01:40:28.979Z,100538.19
2023-01-26T01:42:30.394Z,100536.56
2023-01-26T01:44:34.601Z,100540.09
2023-01-26T01:49:11.166Z,100539.16
2023-01-26T01:51:18.363Z,100538.06
2023-01-26T01:53:27.203Z,100537.50
2023-01-26T01:55:29.133Z,100528.91
2023-01-26T01:57:44.826Z,100523.84
2023-01-26T01:59:54.262Z,100517.69
2023-01-26T02:01:56.355Z,100516.50
2023-01-26T02:04:01.668Z,100504.72
2023-01-26T02:06:21.174Z,100507.06
2023-01-26T02:08:27.401Z,100507.88
2023-01-26T02:10:30.056Z,100504.47
2023-01-26T02:12:34.803Z,100501.06
2023-01-26T02:14:36.161Z,100493.28
2023-01-26T02:16:39.923Z,100499.41
2023-01-26T02:18:41.663Z,100500.38
2023-01-26T02:20:59.037Z,100498.59
2023-01-26T02:23:18.943Z,100490.56
2023-01-26T02:25:38.993Z,100488.66
2023-01-26T02:27:40.384Z,100488.47
2023-01-26T02:29:42.018Z,100482.75
2023-01-26T02:31:43.840Z,100487.53
2023-01-26T02:33:45.999Z,100485.50
2023-01-26T02:35:47.410Z,100476.50
2023-01-26T02:37:48.879Z,100476.19
2023-01-26T02:40:02.400Z,100483.72
2023-01-26T02:42:22.901Z,100488.59
2023-01-26T02:44:25.350Z,100493.78
2023-01-26T02:46:26.762Z,100494.22
2023-01-26T02:48:47.871Z,100501.56
2023-01-26T02:50:49.256Z,100489.03
2023-01-26T02:52:50.616Z,100481.13
2023-01-26T02:55:11.386Z,100489.72
2023-01-26T02:57:12.733Z,100494.59
2023-01-26T02:59:14.122Z,100489.97
2023-01-26T03:01:15.616Z,100477.72
2023-01-26T03:03:23.605Z,100483.03
2023-01-26T03:05:28.867Z,100486.56
2023-01-26T03:07:30.715Z,100477.94
2023-01-26T03:09:32.174Z,100485.50
2023-01-26T03:11:41.996Z,100480.31
2023-01-26T03:13:43.399Z,100470.88
2023-01-26T03:15:52.339Z,100471.56
2023-01-26T03:18:21.595Z,100472.66
2023-01-26T03:20:41.307Z,100470.34
2023-01-26T03:23:01.294Z,100475.13
2023-01-26T03:25:21.031Z,100472.28
2023-01-26T03:27:28.116Z,100469.88
2023-01-26T03:29:30.435Z,100473.22
2023-01-26T03:31:31.827Z,100472.66
2023-01-26T03:33:33.185Z,100466.94
2023-01-26T03:35:34.558Z,100470.72
2023-01-26T03:37:36.831Z,100470.34
2023-01-26T03:39:56.889Z,100465.44
2023-01-26T03:42:17.086Z,100470.06
2023-01-26T03:44:36.753Z,100484.78
2023-01-26T03:46:56.648Z,100467.56
2023-01-26T03:49:16.315Z,100463.66
2023-01-26T03:51:36.098Z,100464.75
2023-01-26T03:53:56.337Z,100467.34
2023-01-26T03:56:16.158Z,100468.34
2023-01-26T03:58:17.559Z,100470.38
2023-01-26T04:00:19.226Z,100465.63
2023-01-26T04:02:38.935Z,100472.66
2023-01-26T04:04:58.779Z,100471.50
2023-01-26T04:07:18.518Z,100468.94
2023-01-26T04:09:20.064Z,100464.97
2023-01-26T04:11:21.436Z,100462.84
2023-01-26T04:13:42.981Z,100465.06
2023-01-26T04:16:02.787Z,100465.25
2023-01-26T04:18:26.578Z,100463.84
2023-01-26T04:20:46.256Z,100470.00
2023-01-26T04:22:47.648Z,100470.00
2023-01-26T04:24:48.985Z,100472.34
2023-01-26T04:26:50.421Z,100471.97
2023-01-26T04:28:51.939Z,100466.91
2023-01-26T04:30:53.357Z,100468.94
2023-01-26T04:32:54.923Z,100473.47
2023-01-26T04:34:56.447Z,100470.31
2023-01-26T04:36:57.837Z,100463.94
2023-01-26T04:38:59.249Z,100468.81
2023-01-26T04:41:00.753Z,100457.91
2023-01-26T04:43:02.101Z,100459.22
2023-01-26T04:45:03.733Z,100457.09
2023-01-26T04:47:05.256Z,100459.38
2023-01-26T04:49:06.711Z,100455.31
2023-01-26T04:51:20.765Z,100459.69
2023-01-26T04:53:22.694Z,100453.53
2023-01-26T04:55:24.059Z,100457.09
2023-01-26T04:57:25.469Z,100459.56
2023-01-26T04:59:27.906Z,100456.81
2023-01-26T05:01:29.810Z,100454.66
2023-01-26T05:05:58.705Z,100460.44
2023-01-26T05:08:00.127Z,100455.63
2023-01-26T05:10:01.557Z,100459.44
2023-01-26T05:12:22.965Z,100444.59
2023-01-26T05:14:24.968Z,100446.09
2023-01-26T05:16:26.595Z,100448.69
2023-01-26T05:18:28.336Z,100439.84
2023-01-26T05:20:29.793Z,100450.22
2023-01-26T05:22:31.161Z,100450.06
2023-01-26T05:24:32.554Z,100456.34
2023-01-26T05:26:34.020Z,100452.00
2023-01-26T05:28:36.299Z,100459.63
2023-01-26T05:30:37.761Z,100458.81
2023-01-26T05:32:39.256Z,100454.97
2023-01-26T05:34:40.644Z,100461.41
2023-01-26T05:36:42.100Z,100464.16
2023-01-26T05:38:43.567Z,100458.13
2023-01-26T05:40:45.069Z,100462.22
2023-01-26T05:42:46.493Z,100464.97
2023-01-26T05:44:47.871Z,100464.81
2023-01-26T05:46:49.296Z,100474.25
2023-01-26T05:48:50.691Z,100466.22
2023-01-26T05:50:52.087Z,100462.69
2023-01-26T05:52:53.657Z,100467.88
2023-01-26T05:54:55.075Z,100467.03
2023-01-26T05:56:57.467Z,100466.34
2023-01-26T05:58:58.881Z,100473.69
2023-01-26T06:01:04.346Z,100460.06
2023-01-26T06:03:05.727Z,100469.63
2023-01-26T06:05:08.261Z,100464.31
2023-01-26T06:07:09.980Z,100470.91
2023-01-26T06:09:11.407Z,100473.44
2023-01-26T06:11:12.806Z,100471.38
2023-01-26T06:13:14.179Z,100474.53
2023-01-26T06:15:15.624Z,100471.41
2023-01-26T06:17:18.210Z,100475.75
2023-01-26T06:19:19.590Z,100465.13
2023-01-26T06:21:21.031Z,100470.88
2023-01-26T06:23:22.423Z,100471.56
2023-01-26T06:25:23.794Z,100477.41
2023-01-26T06:27:25.240Z,100472.75
2023-01-26T06:29:26.638Z,100479.75
2023-01-26T06:31:29.668Z,100474.16
2023-01-26T06:33:34.325Z,100472.06
2023-01-26T06:35:36.113Z,100474.09
2023-01-26T06:37:37.496Z,100474.16
2023-01-26T06:39:38.929Z,100474.00
2023-01-26T06:41:42.229Z,100471.78
2023-01-26T06:43:48.269Z,100481.50
2023-01-26T06:45:49.771Z,100479.16
2023-01-26T06:47:52.340Z,100480.97
2023-01-26T06:49:54.325Z,100479.34
2023-01-26T06:52:04.636Z,100484.94
2023-01-26T06:54:06.014Z,100483.28
2023-01-26T06:56:07.369Z,100491.06
2023-01-26T06:58:08.747Z,100491.78
2023-01-26T07:00:12.252Z,100487.41
2023-01-26T07:02:19.589Z,100491.41
2023-01-26T07:04:21.021Z,100484.41
2023-01-26T07:06:22.418Z,100480.31
2023-01-26T07:08:24.317Z,100481.97
2023-01-26T07:10:25.694Z,100474.03
2023-01-26T07:12:38.268Z,100483.19
2023-01-26T07:14:39.798Z,100479.78
2023-01-26T07:16:41.232Z,100475.19
2023-01-26T07:18:42.896Z,100472.59
2023-01-26T07:20:44.281Z,100469.00
2023-01-26T07:22:45.975Z,100470.66
2023-01-26T07:24:47.821Z,100469.00
2023-01-26T07:26:49.641Z,100475.19
2023-01-26T07:28:51.097Z,100474.66
2023-01-26T07:30:58.748Z,100478.91
2023-01-26T07:33:00.843Z,100472.44
2023-01-26T07:35:02.315Z,100468.06
2023-01-26T07:37:05.163Z,100467.69
2023-01-26T07:39:08.508Z,100466.84
2023-01-26T07:41:13.081Z,100468.25
2023-01-26T07:43:15.149Z,100469.19
2023-01-26T07:45:18.039Z,100473.28
2023-01-26T07:47:20.113Z,100477.81
2023-01-26T07:49:21.639Z,100478.38
2023-01-26T07:51:23.515Z,100483.28
2023-01-26T07:53:27.531Z,100484.38
2023-01-26T07:55:29.281Z,100483.97
2023-01-26T07:57:30.797Z,100477.53
2023-01-26T07:59:32.667Z,100484.94
2023-01-26T08:01:34.275Z,100478.91
2023-01-26T08:03:36.584Z,100483.03
2023-01-26T08:05:38.691Z,100482.75
2023-01-26T08:07:40.537Z,100486.88
2023-01-26T08:09:41.991Z,100478.13
2023-01-26T08:11:43.386Z,100474.19
2023-01-26T08:13:45.380Z,100483.47
2023-01-26T08:15:46.717Z,100479.00
2023-01-26T08:17:48.126Z,100483.47
2023-01-26T08:19:49.577Z,100483.19
2023-01-26T08:21:53.214Z,100492.38
2023-01-26T08:23:56.073Z,100495.78
2023-01-26T08:26:01.883Z,100494.69
2023-01-26T08:28:03.724Z,100502.75
2023-01-26T08:30:06.862Z,100496.19
2023-01-26T08:32:09.226Z,100496.91
2023-01-26T08:34:10.993Z,100493.19
2023-01-26T08:36:14.109Z,100496.50
2023-01-26T08:38:15.619Z,100497.31
2023-01-26T08:40:17.026Z,100501.56
2023-01-26T08:42:19.187Z,100502.91
2023-01-26T08:44:21.727Z,100503.59
2023-01-26T08:46:23.584Z,100503.03
2023-01-26T08:48:25.368Z,100506.06
2023-01-26T08:50:27.404Z,100506.63
2023-01-26T08:52:28.779Z,100510.59
2023-01-26T08:54:30.178Z,100515.38
2023-01-26T08:56:31.547Z,100518.69
2023-01-26T08:58:33.698Z,100517.88
2023-01-26T09:00:35.115Z,100527.69
2023-01-26T09:02:36.565Z,100514.44
2023-01-26T09:04:38.006Z,100516.22
2023-01-26T09:06:39.356Z,100513.06
2023-01-26T09:08:40.809Z,100516.09
2023-01-26T09:10:45.101Z,100514.88
2023-01-26T09:12:46.494Z,100519.91
2023-01-26T09:14:47.854Z,100523.50
2023-01-26T09:16:49.752Z,100518.84
2023-01-26T09:18:52.547Z,100516.53
2023-01-26T09:20:55.719Z,100512.94
2023-01-26T09:22:57.550Z,100515.44
2023-01-26T09:24:59.137Z,100515.03
2023-01-26T09:27:00.615Z,100522.56
2023-01-26T09:29:02.081Z,100518.75
2023-01-26T09:31:05.243Z,100525.84
2023-01-26T09:33:07.284Z,100521.34
2023-01-26T09:35:14.309Z,100525.28
2023-01-26T09:37:20.069Z,100518.75
2023-01-26T09:39:21.430Z,100524.34
2023-01-26T09:41:36.821Z,100532.28
2023-01-26T09:43:51.602Z,100531.34
2023-01-26T09:46:19.073Z,100526.69
2023-01-26T09:48:37.724Z,100525.31
2023-01-26T09:50:51.183Z,100535.84
2023-01-26T09:52:58.118Z,100528.19
2023-01-26T09:55:04.232Z,100521.34
2023-01-26T09:57:46.462Z,100518.75
2023-01-26T10:00:21.647Z,100524.34
2023-01-26T10:02:37.311Z,100517.50
2023-01-26T10:04:44.050Z,100520.13
2023-01-26T10:06:46.887Z,100521.06
2023-01-26T10:08:50.130Z,100517.50
2023-01-26T10:11:05.226Z,100515.59
2023-01-26T10:13:06.679Z,100516.53
2023-01-26T10:15:39.047Z,100509.59
2023-01-26T10:17:44.027Z,100506.28
2023-01-26T10:20:01.197Z,100500.94
2023-01-26T10:22:12.321Z,100502.19
2023-01-26T10:24:17.388Z,100502.88
2023-01-26T10:26:22.529Z,100507.94
2023-01-26T10:28:28.742Z,100511.47
2023-01-26T10:30:30.182Z,100505.03
2023-01-26T10:32:32.126Z,100507.38
2023-01-26T10:34:33.970Z,100508.34
2023-01-26T10:36:35.447Z,100499.31
2023-01-26T10:38:36.759Z,100498.63
2023-01-26T10:40:45.339Z,100497.13
2023-01-26T10:42:59.272Z,100498.88
2023-01-26T10:45:05.262Z,100496.16
2023-01-26T10:47:16.148Z,100495.34
2023-01-26T10:49:18.322Z,100486.00
2023-01-26T10:51:32.245Z,100487.38
2023-01-26T10:53:33.655Z,100497.94
2023-01-26T10:55:37.180Z,100491.63
2023-01-26T10:57:41.527Z,100497.53
2023-01-26T10:59:58.976Z,100491.47
2023-01-26T11:02:19.304Z,100493.81
2023-01-26T11:04:20.814Z,100489.03
2023-01-26T11:06:28.574Z,100489.97
2023-01-26T11:08:40.271Z,100477.22
2023-01-26T11:10:52.615Z,100474.50
2023-01-26T11:13:18.010Z,100472.84
2023-01-26T11:15:21.005Z,100480.91
2023-01-26T11:17:29.437Z,100468.19
2023-01-26T11:19:44.745Z,100470.22
2023-01-26T11:22:08.268Z,100471.72
2023-01-26T11:24:21.245Z,100471.72
2023-01-26T11:26:34.642Z,100469.81
2023-01-26T11:28:50.314Z,100476.69
2023-01-26T11:31:00.162Z,100468.03
2023-01-26T11:33:18.843Z,100463.91
2023-01-26T11:35:23.757Z,100472.94
2023-01-26T11:37:46.358Z,100461.28
2023-01-26T11:39:56.632Z,100461.16
2023-01-26T11:42:07.318Z,100455.97
2023-01-26T11:44:28.546Z,100457.38
2023-01-26T11:46:53.329Z,100452.81
2023-01-26T11:49:27.536Z,100448.16
2023-01-26T11:51:51.883Z,100450.59
2023-01-26T11:53:56.290Z,100450.22
2023-01-26T11:56:35.780Z,100451.16
2023-01-26T11:58:44.860Z,100454.34
2023-01-26T12:01:07.133Z,100448.84
2023-01-26T12:03:19.708Z,100450.50
2023-01-26T12:05:28.991Z,100448.72
2023-01-26T12:07:51.207Z,100448.72
2023-01-26T12:09:53.394Z,100452.72
2023-01-26T12:12:05.149Z,100451.75
2023-01-26T12:14:28.035Z,100444.47
2023-01-26T12:16:51.143Z,100439.56
2023-01-26T12:19:39.772Z,100437.75
2023-01-26T12:21:45.639Z,100437.88
2023-01-26T12:24:02.560Z,100434.19
2023-01-26T12:26:12.147Z,100430.09
2023-01-26T12:28:36.964Z,100421.75
2023-01-26T12:30:53.767Z,100425.31
2023-01-26T12:32:56.429Z,100423.66
2023-01-26T12:34:58.120Z,100414.97
2023-01-26T12:37:05.252Z,100409.34
2023-01-26T12:39:32.938Z,100406.97
2023-01-26T12:41:59.414Z,100408.94
2023-01-26T12:44:34.577Z,100404.09
2023-01-26T12:46:41.301Z,100409.47
2023-01-26T12:48:52.579Z,100408.63
2023-01-26T12:51:00.546Z,100400.53
2023-01-26T12:53:37.868Z,100399.22
2023-01-26T12:55:56.652Z,100402.88
2023-01-26T12:57:59.743Z,100395.22
2023-01-26T13:02:37.883Z,100385.78
2023-01-26T13:04:40.729Z,100393.88
2023-01-26T13:06:42.944Z,100394.84
2023-01-26T13:08:57.681Z,100397.88
2023-01-26T13:11:01.456Z,100390.22
2023-01-26T13:13:18.153Z,100394.31
2023-01-26T13:15:22.405Z,100386.25
2023-01-26T13:17:25.574Z,100390.59
2023-01-26T13:19:43.180Z,100391.84
2023-01-26T13:21:45.145Z,100389.09
2023-01-26T13:23:46.698Z,100389.63
2023-01-26T13:26:12.882Z,100386.38
2023-01-26T13:28:14.334Z,100384.31
2023-01-26T13:30:42.566Z,100391.47
2023-01-26T13:32:46.758Z,100396.50
2023-01-26T13:34:57.310Z,100398.31
2023-01-26T13:37:16.036Z,100395.25
2023-01-26T13:39:46.702Z,100387.31
2023-01-26T13:41:48.173Z,100393.66
2023-01-26T13:43:54.593Z,100391.31
2023-01-26T13:45:55.918Z,100387.09
2023-01-26T13:47:58.558Z,100387.63
2023-01-26T13:49:59.908Z,100389.47
2023-01-26T13:52:02.597Z,100389.06
2023-01-26T13:54:06.732Z,100393.00
2023-01-26T13:56:27.637Z,100388.16
2023-01-26T13:58:29.059Z,100395.84
2023-01-26T14:00:30.574Z,100393.38
2023-01-26T14:02:34.645Z,100392.53
2023-01-26T14:04:37.684Z,100391.84
2023-01-26T14:06:39.589Z,100392.41
2023-01-26T14:08:48.540Z,100391.91
2023-01-26T14:10:50.984Z,100396.25
2023-01-26T14:12:56.654Z,100390.22
2023-01-26T14:15:01.542Z,100392.81
2023-01-26T14:17:25.211Z,100386.38
2023-01-26T14:19:28.925Z,100387.91
2023-01-26T14:21:32.416Z,100387.03
2023-01-26T14:23:36.552Z,100381.81
2023-01-26T14:25:38.951Z,100386.78
2023-01-26T14:27:42.180Z,100390.22
2023-01-26T14:29:43.595Z,100391.75
2023-01-26T14:31:46.923Z,100386.63
2023-01-26T14:33:57.142Z,100396.25
2023-01-26T14:36:04.062Z,100391.31
2023-01-26T14:38:16.176Z,100398.31
2023-01-26T14:40:21.725Z,100400.41
2023-01-26T14:42:23.171Z,100399.69
2023-01-26T14:44:24.908Z,100407.09
2023-01-26T14:46:46.512Z,100408.75
2023-01-26T14:48:53.490Z,100407.91
2023-01-26T14:50:55.275Z,100410.94
2023-01-26T14:52:57.029Z,100411.59
2023-01-26T14:55:03.498Z,100414.63
2023-01-26T14:57:09.309Z,100415.56
2023-01-26T14:59:22.219Z,100411.19
2023-01-26T15:01:25.768Z,100412.13
2023-01-26T15:03:37.451Z,100416.09
2023-01-26T15:05:42.050Z,100420.66
2023-01-26T15:07:45.002Z,100425.69
2023-01-26T15:09:54.729Z,100423.25
2023-01-26T15:12:17.233Z,100421.59
2023-01-26T15:14:49.426Z,100425.69
2023-01-26T15:16:54.041Z,100424.06
2023-01-26T15:19:04.743Z,100420.34
2023-01-26T15:21:06.084Z,100421.00
2023-01-26T15:23:32.569Z,100415.00
2023-01-26T15:25:34.402Z,100423.63
2023-01-26T15:27:36.950Z,100421.84
2023-01-26T15:29:38.411Z,100424.94
2023-01-26T15:31:42.174Z,100418.50
2023-01-26T15:33:53.552Z,100413.59
2023-01-26T15:35:58.577Z,100417.69
2023-01-26T15:38:11.663Z,100419.09
2023-01-26T15:40:15.358Z,100427.44
2023-01-26T15:42:24.314Z,100429.22
2023-01-26T15:44:25.680Z,100428.28
2023-01-26T15:46:27.137Z,100425.78
2023-01-26T15:48:31.614Z,100430.03
2023-01-26T15:50:33.060Z,100424.53
2023-01-26T15:52:34.461Z,100420.28
2023-01-26T15:54:35.817Z,100411.81
2023-01-26T15:56:37.318Z,100416.91
2023-01-26T15:58:39.249Z,100415.91
2023-01-26T16:00:40.705Z,100416.19
2023-01-26T16:02:42.078Z,100413.91
2023-01-26T16:04:44.300Z,100412.94
2023-01-26T16:06:45.841Z,100415.25
2023-01-26T16:08:47.431Z,100419.75
2023-01-26T16:10:48.953Z,100411.81
2023-01-26T16:12:50.933Z,100402.88
2023-01-26T16:14:52.315Z,100402.06
2023-01-26T16:16:53.732Z,100402.16
2023-01-26T16:18:55.952Z,100408.91
2023-01-26T16:20:59.935Z,100402.94
2023-01-26T16:23:01.307Z,100410.34
2023-01-26T16:25:02.681Z,100409.22
2023-01-26T16:27:05.674Z,100404.00
2023-01-26T16:29:07.094Z,100409.22
2023-01-26T16:31:21.551Z,100410.88
2023-01-26T16:33:24.400Z,100408.56
2023-01-26T16:35:26.276Z,100410.75
2023-01-26T16:37:27.667Z,100406.09
2023-01-26T16:39:29.072Z,100405.78
2023-01-26T16:41:32.646Z,100402.88
2023-01-26T16:43:34.116Z,100408.38
2023-01-26T16:45:35.514Z,100402.53
2023-01-26T16:47:36.884Z,100406.75
2023-01-26T16:49:38.474Z,100404.97
2023-01-26T16:51:42.430Z,100413.31
2023-01-26T16:53:44.256Z,100404.66
2023-01-26T16:55:45.741Z,100412.47
2023-01-26T16:57:49.799Z,100411.69
2023-01-26T16:59:51.293Z,100414.41
2023-01-26T17:01:52.786Z,100413.59
2023-01-26T17:03:55.906Z,100409.34
2023-01-26T17:05:57.298Z,100418.28
2023-01-26T17:07:58.675Z,100415.66
2023-01-26T17:10:00.021Z,100413.69
2023-01-26T17:12:01.429Z,100415.06
2023-01-26T17:14:03.599Z,100420.28
2023-01-26T17:16:05.466Z,100414.28
2023-01-26T17:18:07.070Z,100423.16
2023-01-26T17:20:18.744Z,100423.00
2023-01-26T17:22:20.909Z,100422.34
2023-01-26T17:24:22.314Z,100426.19
2023-01-26T17:26:24.014Z,100425.75
2023-01-26T17:28:27.106Z,100424.41
2023-01-26T17:30:28.525Z,100420.94
2023-01-26T17:32:30.786Z,100427.25
2023-01-26T17:34:32.221Z,100418.47
2023-01-26T17:36:33.725Z,100424.34
2023-01-26T17:38:35.638Z,100429.69
2023-01-26T17:40:37.314Z,100427.78
2023-01-26T17:42:38.963Z,100426.66
2023-01-26T17:44:40.443Z,100427.09
2023-01-26T17:46:41.810Z,100428.59
2023-01-26T17:48:45.265Z,100430.09
2023-01-26T17:50:50.501Z,100432.69
2023-01-26T17:52:51.894Z,100435.16
2023-01-26T17:54:53.385Z,100429.66
2023-01-26T17:56:55.473Z,100433.53
2023-01-26T17:58:57.405Z,100431.44
2023-01-26T18:00:58.948Z,100435.41
2023-01-26T18:03:00.411Z,100424.28
2023-01-26T18:05:01.763Z,100429.78
2023-01-26T18:07:03.783Z,100433.09
2023-01-26T18:09:06.530Z,100429.66
2023-01-26T18:11:11.277Z,100434.47
2023-01-26T18:13:13.006Z,100435.97
2023-01-26T18:15:14.446Z,100441.88
2023-01-26T18:17:15.826Z,100441.44
2023-01-26T18:19:17.228Z,100433.31
2023-01-26T18:21:24.583Z,100441.28
2023-01-26T18:23:25.974Z,100436.22
2023-01-26T18:25:27.335Z,100429.59
2023-01-26T18:27:28.753Z,100434.50
2023-01-26T18:29:30.277Z,100430.28
2023-01-26T18:31:34.608Z,100432.59
2023-01-26T18:33:36.425Z,100429.81
2023-01-26T18:35:37.898Z,100441.06
2023-01-26T18:37:39.357Z,100439.00
2023-01-26T18:39:40.753Z,100427.75
2023-01-26T18:41:43.276Z,100432.97
2023-01-26T18:43:44.903Z,100419.41
2023-01-26T18:45:46.490Z,100425.88
2023-01-26T18:47:49.440Z,100422.00
2023-01-26T18:49:50.806Z,100424.47
2023-01-26T18:51:52.336Z,100425.44
2023-01-26T18:53:53.767Z,100420.53
2023-01-26T18:56:05.621Z,100423.50
2023-01-26T18:58:07.026Z,100419.91
2023-01-26T19:00:09.067Z,100419.09
2023-01-26T19:02:13.521Z,100427.91
2023-01-26T19:04:17.870Z,100416.34
2023-01-26T19:06:20.353Z,100415.53
2023-01-26T19:08:24.553Z,100420.22
2023-01-26T19:10:26.010Z,100422.41
2023-01-26T19:12:27.469Z,100416.34
2023-01-26T19:14:29.723Z,100423.88
2023-01-26T19:16:31.887Z,100421.13
2023-01-26T19:18:33.428Z,100425.53
2023-01-26T19:20:34.903Z,100417.69
2023-01-26T19:22:36.624Z,100419.34
2023-01-26T19:24:37.978Z,100422.25
2023-01-26T19:26:39.394Z,100425.13
2023-01-26T19:28:41.897Z,100413.22
2023-01-26T19:30:44.273Z,100415.53
2023-01-26T19:33:07.238Z,100417.19
2023-01-26T19:35:09.121Z,100420.75
2023-01-26T19:37:10.544Z,100416.06
2023-01-26T19:39:13.638Z,100421.28
2023-01-26T19:41:15.607Z,100424.88
2023-01-26T19:43:19.051Z,100433.03
2023-01-26T19:45:20.559Z,100430.59
2023-01-26T19:47:22.038Z,100428.66
2023-01-26T19:49:23.472Z,100424.41
2023-01-26T19:51:26.633Z,100420.00
2023-01-26T19:53:28.867Z,100420.84
2023-01-26T19:55:32.288Z,100424.25
2023-01-26T19:57:34.141Z,100421.78
2023-01-26T19:59:35.565Z,100421.69
2023-01-26T20:01:37.110Z,100431.56
2023-01-26T20:03:39.303Z,100431.88
2023-01-26T20:05:40.674Z,100432.81
2023-01-26T20:07:42.841Z,100423.88
2023-01-26T20:09:44.246Z,100429.53
2023-01-26T20:11:45.616Z,100421.69
2023-01-26T20:13:47.040Z,100419.09
2023-01-26T20:15:48.647Z,100421.69
2023-01-26T20:17:50.295Z,100425.81
2023-01-26T20:19:51.877Z,100424.03
2023-01-26T20:21:53.533Z,100426.47
2023-01-26T20:23:56.206Z,100424.03
2023-01-26T20:26:05.913Z,100421.44
2023-01-26T20:28:07.355Z,100421.28
2023-01-26T20:30:09.516Z,100421.28
2023-01-26T20:32:11.040Z,100420.19
2023-01-26T20:34:13.753Z,100417.28
2023-01-26T20:36:18.378Z,100417.09
2023-01-26T20:38:19.749Z,100413.66
2023-01-26T20:40:21.290Z,100414.50
2023-01-26T20:42:22.686Z,100416.97
2023-01-26T20:44:24.164Z,100415.19
2023-01-26T20:46:27.683Z,100410.78
2023-01-26T20:48:29.092Z,100421.06
2023-01-26T20:50:35.979Z,100414.72
2023-01-26T20:52:38.549Z,100406.38
2023-01-26T20:54:39.964Z,100412.94
2023-01-26T20:56:42.039Z,100418.00
2023-01-26T20:58:44.004Z,100407.88
2023-01-26T21:00:45.408Z,100415.41
2023-01-26T21:02:46.785Z,100418.16
2023-01-26T21:04:48.369Z,100414.59
2023-01-26T21:06:49.851Z,100418.97
2023-01-26T21:08:54.307Z,100422.28
2023-01-26T21:10:56.126Z,100414.16
2023-01-26T21:12:57.541Z,100411.22
2023-01-26T21:14:58.949Z,100416.06
2023-01-26T21:17:00.485Z,100414.81
2023-01-26T21:19:01.945Z,100413.69
2023-01-26T21:21:06.867Z,100415.69
2023-01-26T21:23:08.233Z,100419.28
2023-01-26T21:25:10.698Z,100413.91
2023-01-26T21:27:12.098Z,100415.53
2023-01-26T21:29:16.013Z,100414.44
2023-01-26T21:31:18.527Z,100417.03
2023-01-26T21:33:19.961Z,100415.25
2023-01-26T21:35:21.348Z,100414.13
2023-01-26T21:37:22.772Z,100413.44
2023-01-26T21:39:24.175Z,100417.41
2023-01-26T21:41:47.175Z,100416.81
2023-01-26T21:43:48.666Z,100418.44
2023-01-26T21:45:52.799Z,100407.72
2023-01-26T21:48:12.550Z,100413.91
2023-01-26T21:50:14.176Z,100408.25
2023-01-26T21:52:34.122Z,100404.34
2023-01-26T21:54:35.541Z,100398.16
2023-01-26T21:56:37.238Z,100398.84
2023-01-26T21:59:02.392Z,100402.09
2023-01-26T22:01:08.616Z,100397.41
2023-01-26T22:03:10.191Z,100400.81
2023-01-26T22:05:11.589Z,100396.25
2023-01-26T22:07:13.099Z,100398.72
2023-01-26T22:09:16.615Z,100398.72
2023-01-26T22:11:18.136Z,100405.09
2023-01-26T22:13:19.754Z,100407.53
2023-01-26T22:15:21.145Z,100403.81
2023-01-26T22:17:22.576Z,100402.16
2023-01-26T22:19:23.991Z,100406.56
2023-01-26T22:21:26.269Z,100405.28
2023-01-26T22:23:34.268Z,100410.50
2023-01-26T22:25:40.077Z,100404.31
2023-01-26T22:27:41.453Z,100402.69
2023-01-26T22:29:42.852Z,100404.59
2023-01-26T22:31:44.400Z,100404.91
2023-01-26T22:33:46.651Z,100404.25
2023-01-26T22:35:48.005Z,100402.31
2023-01-26T22:37:49.710Z,100396.25
2023-01-26T22:39:51.075Z,100409.41
2023-01-26T22:41:52.661Z,100403.53
2023-01-26T22:43:56.899Z,100399.13
2023-01-26T22:46:04.397Z,100406.91
2023-01-26T22:48:06.774Z,100405.38
2023-01-26T22:50:10.260Z,100402.56
2023-01-26T22:52:11.733Z,100408.09
2023-01-26T22:54:13.107Z,100400.28
2023-01-26T22:56:15.066Z,100409.75
2023-01-26T22:58:16.416Z,100409.34
2023-01-26T23:00:17.898Z,100412.66
2023-01-26T23:02:19.242Z,100410.03
2023-01-26T23:04:20.667Z,100406.75
2023-01-26T23:06:22.644Z,100408.22
2023-01-26T23:08:24.065Z,100402.22
2023-01-26T23:10:25.518Z,100417.19
2023-01-26T23:12:26.982Z,100404.16
2023-01-26T23:14:29.834Z,100407.06
2023-01-26T23:16:31.261Z,100409.34
2023-01-26T23:18:32.796Z,100419.47
2023-01-26T23:20:34.169Z,100419.66
2023-01-26T23:22:35.547Z,100419.03
2023-01-26T23:24:36.939Z,100420.00
2023-01-26T23:26:38.536Z,100421.53
2023-01-26T23:28:42.365Z,100413.63
2023-01-26T23:30:43.790Z,100432.09
2023-01-26T23:32:45.193Z,100418.22
2023-01-26T23:34:46.588Z,100422.47
2023-01-26T23:36:47.955Z,100420.38
2023-01-26T23:38:49.897Z,100416.13
2023-01-26T23:40:52.133Z,100422.47
2023-01-26T23:43:06.703Z,100426.03
2023-01-26T23:45:12.055Z,100427.19
2023-01-26T23:47:13.478Z,100423.13
2023-01-26T23:49:14.897Z,100432.91
2023-01-26T23:51:19.717Z,100433.88
2023-01-26T23:53:21.161Z,100433.56
2023-01-26T23:55:23.070Z,100433.88
2023-01-26T23:57:24.505Z,100440.34